createdAt,value
2022-11-24T00:02:07.849Z,0.21
2022-11-24T00:06:16.774Z,0.27
2022-11-24T00:10:24.829Z,0.35
2022-11-24T00:14:33.281Z,0.40
2022-11-24T00:18:42.233Z,0.44
2022-11-24T00:22:50.192Z,0.46
2022-11-24T00:26:57.984Z,0.50
2022-11-24T00:31:06.296Z,0.55
2022-11-24T00:35:13.819Z,0.61
2022-11-24T00:39:23.349Z,0.66
2022-11-24T00:43:30.484Z,0.68
2022-11-24T00:47:39.029Z,0.63
2022-11-24T00:51:46.623Z,0.58
2022-11-24T00:55:54.599Z,0.59
2022-11-24T01:00:02.373Z,0.64
2022-11-24T01:04:11.873Z,0.65
2022-11-24T01:08:21.158Z,0.67
2022-11-24T01:12:29.300Z,0.68
2022-11-24T01:16:38.995Z,0.65
2022-11-24T01:20:46.686Z,0.60
2022-11-24T01:24:54.301Z,0.61
2022-11-24T01:29:01.966Z,0.65
2022-11-24T01:33:10.217Z,0.64
2022-11-24T01:37:18.272Z,0.61
2022-11-24T01:41:27.282Z,0.54
2022-11-24T01:45:41.345Z,0.46
2022-11-24T01:49:51.237Z,0.39
2022-11-24T01:54:02.290Z,0.38
2022-11-24T01:58:11.505Z,0.43
2022-11-24T02:02:19.320Z,0.46
2022-11-24T02:06:31.377Z,0.49
2022-11-24T02:10:39.625Z,0.42
2022-11-24T02:14:47.835Z,0.34
2022-11-24T02:18:55.817Z,0.22
2022-11-24T02:23:07.177Z,0.22
2022-11-24T02:27:14.698Z,0.26
2022-11-24T02:31:22.403Z,0.31
2022-11-24T02:35:31.239Z,0.29
2022-11-24T02:39:38.886Z,0.28
2022-11-24T02:43:48.914Z,0.25
2022-11-24T02:47:57.426Z,0.20
2022-11-24T02:52:07.394Z,0.13
2022-11-24T02:56:14.910Z,0.13
2022-11-24T03:00:23.716Z,0.17
2022-11-24T03:04:31.404Z,0.19
2022-11-24T03:08:42.321Z,0.16
2022-11-24T03:12:50.088Z,0.05
2022-11-24T03:16:57.985Z,0.01
2022-11-24T03:21:07.523Z,0.03
2022-11-24T03:25:14.919Z,0.10
2022-11-24T03:29:25.196Z,0.20
2022-11-24T03:33:32.665Z,0.24
2022-11-24T03:37:41.960Z,0.21
2022-11-24T03:41:51.655Z,0.12
2022-11-24T03:45:59.789Z,0.07
2022-11-24T03:50:09.438Z,0.09
2022-11-24T03:54:19.219Z,0.07
2022-11-24T03:58:27.131Z,0.09
2022-11-24T04:02:34.533Z,0.16
2022-11-24T04:06:42.798Z,0.21
2022-11-24T04:10:52.646Z,0.25
2022-11-24T04:15:00.128Z,0.26
2022-11-24T04:19:09.179Z,0.30
2022-11-24T04:23:17.274Z,0.37
2022-11-24T04:27:24.707Z,0.41
2022-11-24T04:31:32.457Z,0.43
2022-11-24T04:35:39.981Z,0.45
2022-11-24T04:39:48.278Z,0.45
2022-11-24T04:43:55.893Z,0.48
2022-11-24T04:48:03.602Z,0.53
2022-11-24T04:52:11.058Z,0.52
2022-11-24T04:56:18.896Z,0.52
2022-11-24T05:00:26.764Z,0.49
2022-11-24T05:04:36.309Z,0.48
2022-11-24T05:08:44.845Z,0.48
2022-11-24T05:12:59.767Z,0.52
2022-11-24T05:17:07.943Z,0.46
2022-11-24T05:21:15.833Z,0.42
2022-11-24T05:25:23.351Z,0.35
2022-11-24T05:29:31.378Z,0.32
2022-11-24T05:33:38.859Z,0.34
2022-11-24T05:37:47.780Z,0.38
2022-11-24T05:41:55.581Z,0.42
2022-11-24T05:46:06.574Z,0.44
2022-11-24T05:50:15.606Z,0.48
2022-11-24T05:54:23.784Z,0.49
2022-11-24T05:58:32.872Z,0.56
2022-11-24T06:02:41.362Z,0.67
2022-11-24T06:06:49.253Z,0.75
2022-11-24T06:11:16.325Z,0.77
2022-11-24T06:15:24.276Z,0.79
2022-11-24T06:19:32.501Z,0.81
2022-11-24T06:23:41.823Z,0.86
2022-11-24T06:27:50.185Z,0.92
2022-11-24T06:31:57.602Z,0.94
2022-11-24T06:36:08.006Z,0.91
2022-11-24T06:40:17.486Z,0.85
2022-11-24T06:44:25.469Z,0.75
2022-11-24T06:48:35.679Z,0.68
2022-11-24T06:52:44.184Z,0.65
2022-11-24T06:56:57.051Z,0.68
2022-11-24T07:01:04.825Z,0.74
2022-11-24T07:05:13.166Z,0.80
2022-11-24T07:09:20.471Z,0.82
2022-11-24T07:13:28.528Z,0.84
2022-11-24T07:17:39.013Z,0.87
2022-11-24T07:21:46.494Z,0.96
2022-11-24T07:25:54.005Z,1.07
2022-11-24T07:30:03.395Z,1.14
2022-11-24T07:34:12.970Z,1.10
2022-11-24T07:38:20.761Z,1.04
2022-11-24T07:42:28.479Z,1.04
2022-11-24T07:46:36.061Z,1.11
2022-11-24T07:50:43.592Z,1.24
2022-11-24T07:54:51.277Z,1.37
2022-11-24T07:58:58.919Z,1.48
2022-11-24T08:03:06.894Z,1.57
2022-11-24T08:07:14.777Z,1.64
2022-11-24T08:11:23.180Z,1.73
2022-11-24T08:15:31.842Z,1.86
2022-11-24T08:19:39.434Z,1.97
2022-11-24T08:23:46.923Z,2.01
2022-11-24T08:27:54.173Z,2.05
2022-11-24T08:32:01.893Z,2.10
2022-11-24T08:36:12.067Z,2.17
2022-11-24T08:40:20.734Z,2.29
2022-11-24T08:44:29.725Z,2.37
2022-11-24T08:48:38.132Z,2.46
2022-11-24T08:52:45.874Z,2.46
2022-11-24T08:56:53.740Z,2.32
2022-11-24T09:01:07.489Z,2.19
2022-11-24T09:05:43.650Z,2.06
2022-11-24T09:09:44.759Z,2.10
2022-11-24T09:13:53.100Z,2.28
2022-11-24T09:18:01.859Z,2.46
2022-11-24T09:22:10.064Z,2.56
2022-11-24T09:26:19.756Z,2.64
2022-11-24T09:30:27.366Z,2.68
2022-11-24T09:34:35.021Z,2.69
2022-11-24T09:38:42.922Z,2.70
2022-11-24T09:42:58.425Z,2.78
2022-11-24T09:47:11.379Z,2.86
2022-11-24T09:51:19.713Z,2.89
2022-11-24T09:55:34.905Z,2.94
2022-11-24T09:59:43.830Z,2.99
2022-11-24T10:03:53.444Z,3.04
2022-11-24T10:08:10.099Z,3.14
2022-11-24T10:12:39.965Z,3.23
2022-11-24T10:16:53.615Z,3.33
2022-11-24T10:21:09.744Z,3.41
2022-11-24T10:25:23.969Z,3.47
2022-11-24T10:29:35.248Z,3.48
2022-11-24T10:33:43.630Z,3.50
2022-11-24T10:37:58.768Z,3.54
2022-11-24T10:42:13.109Z,3.63
2022-11-24T10:46:27.105Z,3.75
2022-11-24T10:50:37.643Z,3.81
2022-11-24T10:54:59.301Z,3.86
2022-11-24T10:59:34.009Z,3.84
2022-11-24T11:03:49.610Z,3.89
2022-11-24T11:08:16.116Z,3.97
2022-11-24T11:12:43.461Z,3.91
2022-11-24T11:16:55.652Z,3.88
2022-11-24T11:21:04.779Z,3.91
2022-11-24T11:25:23.034Z,3.88
2022-11-24T11:34:06.138Z,3.73
2022-11-24T11:38:16.291Z,3.80
2022-11-24T11:43:00.093Z,3.81
2022-11-24T11:46:56.114Z,3.75
2022-11-24T11:51:22.979Z,3.67
2022-11-24T11:55:46.582Z,3.66
2022-11-24T12:00:09.951Z,3.64
2022-11-24T12:04:26.472Z,3.61
2022-11-24T12:09:18.066Z,3.61
2022-11-24T12:13:37.939Z,3.62
2022-11-24T12:17:47.896Z,3.72
2022-11-24T12:22:00.504Z,3.80
2022-11-24T12:26:14.700Z,3.89
2022-11-24T12:30:24.134Z,4.01
2022-11-24T12:34:44.943Z,4.14
2022-11-24T12:38:59.271Z,4.25
2022-11-24T12:43:12.895Z,4.31
2022-11-24T12:47:24.054Z,4.26
2022-11-24T12:51:34.993Z,4.22
2022-11-24T12:55:43.036Z,4.26
2022-11-24T12:59:57.936Z,4.33
2022-11-24T13:04:12.096Z,4.39
2022-11-24T13:08:20.011Z,4.41
2022-11-24T13:12:31.527Z,4.39
2022-11-24T13:17:21.882Z,4.33
2022-11-24T13:21:47.667Z,4.29
2022-11-24T13:26:29.224Z,4.30
2022-11-24T13:31:08.983Z,4.33
2022-11-24T13:35:18.295Z,4.33
2022-11-24T13:39:50.909Z,4.30
2022-11-24T13:44:25.407Z,4.29
2022-11-24T13:49:02.535Z,4.32
2022-11-24T13:53:14.834Z,4.40
2022-11-24T13:57:39.822Z,4.47
2022-11-24T14:01:48.836Z,4.49
2022-11-24T14:05:56.759Z,4.50
2022-11-24T14:10:04.922Z,4.41
2022-11-24T14:14:21.803Z,4.34
2022-11-24T14:18:30.207Z,4.29
2022-11-24T14:22:40.947Z,4.27
2022-11-24T14:26:49.133Z,4.25
2022-11-24T14:31:10.064Z,4.16
2022-11-24T14:35:26.557Z,4.10
2022-11-24T14:39:43.626Z,4.11
2022-11-24T14:43:50.939Z,4.19
2022-11-24T14:47:58.663Z,4.28
2022-11-24T14:52:12.871Z,4.35
2022-11-24T14:56:31.674Z,4.42
2022-11-24T15:00:40.163Z,4.47
2022-11-24T15:05:03.615Z,4.46
2022-11-24T15:09:23.622Z,4.41
2022-11-24T15:13:33.399Z,4.39
2022-11-24T15:17:47.417Z,4.43
2022-11-24T15:21:55.334Z,4.47
2022-11-24T15:26:32.215Z,4.51
2022-11-24T15:30:43.581Z,4.48
2022-11-24T15:34:51.267Z,4.44
2022-11-24T15:38:59.352Z,4.39
2022-11-24T15:43:20.045Z,4.36
2022-11-24T15:47:27.477Z,4.36
2022-11-24T15:51:35.261Z,4.39
2022-11-24T15:55:43.722Z,4.44
2022-11-24T15:59:51.735Z,4.45
2022-11-24T16:04:00.417Z,4.43
2022-11-24T16:08:10.257Z,4.39
2022-11-24T16:12:17.982Z,4.37
2022-11-24T16:16:26.224Z,4.36
2022-11-24T16:20:37.111Z,4.39
2022-11-24T16:24:44.610Z,4.40
2022-11-24T16:28:52.077Z,4.39
2022-11-24T16:32:59.840Z,4.35
2022-11-24T16:37:11.556Z,4.31
2022-11-24T16:41:19.224Z,4.25
2022-11-24T16:45:26.787Z,4.22
2022-11-24T16:49:34.669Z,4.18
2022-11-24T16:53:42.664Z,4.19
2022-11-24T16:57:50.535Z,4.16
2022-11-24T17:01:58.290Z,4.06
2022-11-24T17:06:08.261Z,4.00
2022-11-24T17:10:16.161Z,3.98
2022-11-24T17:14:23.417Z,3.96
2022-11-24T17:18:30.913Z,3.93
2022-11-24T17:22:38.749Z,3.93
2022-11-24T17:26:49.152Z,3.95
2022-11-24T17:30:56.790Z,3.94
2022-11-24T17:35:06.476Z,3.89
2022-11-24T17:39:15.307Z,3.90
2022-11-24T17:43:23.944Z,3.95
2022-11-24T17:47:31.547Z,3.98
2022-11-24T17:51:39.551Z,3.99
2022-11-24T17:55:48.504Z,3.97
2022-11-24T17:59:56.539Z,3.92
2022-11-24T18:04:05.301Z,3.91
2022-11-24T18:08:13.879Z,3.91
2022-11-24T18:12:21.863Z,3.90
2022-11-24T18:16:30.639Z,3.88
2022-11-24T18:20:38.713Z,3.85
2022-11-24T18:24:46.443Z,3.76
2022-11-24T18:28:55.025Z,3.70
2022-11-24T18:33:03.028Z,3.66
2022-11-24T18:37:13.478Z,3.71
2022-11-24T18:41:22.566Z,3.74
2022-11-24T18:45:30.174Z,3.73
2022-11-24T18:49:37.937Z,3.71
2022-11-24T18:53:47.090Z,3.67
2022-11-24T18:57:54.753Z,3.67
2022-11-24T19:02:02.121Z,3.70
2022-11-24T19:06:12.291Z,3.73
2022-11-24T19:10:21.921Z,3.72
2022-11-24T19:14:29.780Z,3.69
2022-11-24T19:18:38.903Z,3.62
2022-11-24T19:22:46.748Z,3.52
2022-11-24T19:26:55.612Z,3.47
2022-11-24T19:31:05.253Z,3.48
2022-11-24T19:35:13.053Z,3.50
2022-11-24T19:39:21.816Z,3.50
2022-11-24T19:43:30.013Z,3.50
2022-11-24T19:47:37.479Z,3.48
2022-11-24T19:51:45.147Z,3.52
2022-11-24T19:55:52.440Z,3.59
2022-11-24T20:00:00.140Z,3.65
2022-11-24T20:04:12.396Z,3.70
2022-11-24T20:08:20.508Z,3.70
2022-11-24T20:12:29.469Z,3.70
2022-11-24T20:16:37.616Z,3.73
2022-11-24T20:20:45.743Z,3.79
2022-11-24T20:24:52.982Z,3.85
2022-11-24T20:29:01.617Z,3.88
2022-11-24T20:33:09.850Z,3.89
2022-11-24T20:37:17.829Z,3.88
2022-11-24T20:41:28.861Z,3.89
2022-11-24T20:45:39.805Z,3.92
2022-11-24T20:49:46.974Z,3.97
2022-11-24T20:53:56.574Z,4.00
2022-11-24T20:58:05.187Z,4.01
2022-11-24T21:02:13.379Z,3.98
2022-11-24T21:06:21.258Z,4.01
2022-11-24T21:10:31.716Z,4.05
2022-11-24T21:14:42.072Z,4.12
2022-11-24T21:18:51.670Z,4.18
2022-11-24T21:22:59.075Z,4.20
2022-11-24T21:27:07.103Z,4.21
2022-11-24T21:31:16.977Z,4.22
2022-11-24T21:35:25.371Z,4.24
2022-11-24T21:39:33.510Z,4.27
2022-11-24T21:43:41.655Z,4.31
2022-11-24T21:47:50.078Z,4.30
2022-11-24T21:51:57.503Z,4.30
2022-11-24T21:56:07.328Z,4.28
2022-11-24T22:00:17.334Z,4.30
2022-11-24T22:04:24.984Z,4.34
2022-11-24T22:08:33.303Z,4.39
2022-11-24T22:12:40.532Z,4.42
2022-11-24T22:16:48.347Z,4.36
2022-11-24T22:20:59.510Z,4.31
2022-11-24T22:25:07.601Z,4.32
2022-11-24T22:29:15.697Z,4.35
2022-11-24T22:33:23.313Z,4.41
2022-11-24T22:37:31.204Z,4.46
2022-11-24T22:41:38.747Z,4.46
2022-11-24T22:45:46.359Z,4.44
2022-11-24T22:49:53.907Z,4.46
2022-11-24T22:54:02.862Z,4.53
2022-11-24T22:58:12.576Z,4.61
2022-11-24T23:02:20.134Z,4.63
2022-11-24T23:06:29.185Z,4.60
2022-11-24T23:10:36.962Z,4.54
2022-11-24T23:14:46.188Z,4.52
2022-11-24T23:18:54.228Z,4.55
2022-11-24T23:23:01.982Z,4.57
2022-11-24T23:27:09.428Z,4.56
2022-11-24T23:31:21.130Z,4.52
2022-11-24T23:35:29.007Z,4.48
2022-11-24T23:39:36.254Z,4.45
2022-11-24T23:43:44.665Z,4.41
2022-11-24T23:47:52.683Z,4.40
2022-11-24T23:52:00.434Z,4.40
2022-11-24T23:56:08.762Z,4.37
